createdAt,value
2018-12-21T00:18:10.312Z,2.07
2018-12-21T00:23:03.584Z,1.97
2018-12-21T00:27:56.870Z,1.93
2018-12-21T00:32:55.439Z,1.83
2018-12-21T00:37:54.283Z,2.10
2018-12-21T00:48:07.720Z,2.00
2018-12-21T00:53:01.002Z,2.00
2018-12-21T00:57:54.282Z,1.70
2018-12-21T01:02:47.653Z,1.97
2018-12-21T01:23:54.931Z,1.60
2018-12-21T01:28:48.184Z,2.10
2018-12-21T01:33:41.463Z,1.93
2018-12-21T01:38:34.757Z,1.87
2018-12-21T01:43:28.043Z,1.80
2018-12-21T02:04:35.707Z,1.70
2018-12-21T02:09:28.968Z,2.10
2018-12-21T02:14:22.253Z,1.77
2018-12-21T02:19:15.520Z,1.80
2018-12-21T02:24:08.810Z,1.80
2018-12-21T02:39:51.785Z,2.20
2018-12-21T02:44:45.055Z,2.60
2018-12-21T02:49:38.332Z,2.30
2018-12-21T02:54:31.622Z,2.30
2018-12-21T03:15:39.552Z,2.33
2018-12-21T03:20:32.887Z,2.40
2018-12-21T03:25:26.163Z,2.43
2018-12-21T03:30:19.549Z,2.50
2018-12-21T03:35:13.024Z,2.07
2018-12-21T03:56:21.042Z,2.00
2018-12-21T04:01:14.360Z,2.00
2018-12-21T04:06:07.656Z,1.93
2018-12-21T04:11:01.156Z,2.03
2018-12-21T04:32:08.544Z,2.17
2018-12-21T04:37:01.888Z,1.97
2018-12-21T04:41:55.209Z,1.67
2018-12-21T04:46:48.550Z,1.87
2018-12-21T04:51:41.843Z,2.00
2018-12-21T05:12:49.074Z,1.90
2018-12-21T05:17:42.348Z,1.83
2018-12-21T05:22:35.692Z,1.93
2018-12-21T05:27:29.118Z,1.90
2018-12-21T05:32:22.730Z,1.63
2018-12-21T05:37:16.077Z,1.90
2018-12-21T05:42:09.454Z,1.70
2018-12-21T05:47:02.731Z,1.93
2018-12-21T06:08:10.604Z,1.90
2018-12-21T06:13:03.935Z,1.53
2018-12-21T06:17:57.282Z,1.70
2018-12-21T06:22:50.595Z,1.67
2018-12-21T06:27:43.874Z,1.70
2018-12-21T06:48:51.738Z,1.33
2018-12-21T06:53:45.077Z,1.10
2018-12-21T06:58:38.351Z,1.50
2018-12-21T07:03:31.717Z,1.30
2018-12-21T07:08:25.098Z,1.50
2018-12-21T07:24:07.938Z,1.47
2018-12-21T07:29:01.227Z,1.53
2018-12-21T07:33:54.511Z,1.60
2018-12-21T07:38:47.927Z,1.80
2018-12-21T07:59:55.175Z,1.33
2018-12-21T08:04:48.489Z,1.50
2018-12-21T08:09:41.922Z,1.50
2018-12-21T08:14:35.189Z,1.60
2018-12-21T08:19:28.700Z,1.50
2018-12-21T08:24:22.080Z,2.00
2018-12-21T08:29:15.480Z,1.90
2018-12-21T08:34:08.894Z,1.60
2018-12-21T08:39:02.263Z,1.90
2018-12-21T09:00:12.640Z,2.63
2018-12-21T09:05:06.838Z,1.30
2018-12-21T09:10:00.249Z,1.50
2018-12-21T09:14:54.165Z,1.00
2018-12-21T09:19:48.106Z,1.93
2018-12-21T09:40:55.637Z,1.10
2018-12-21T09:45:48.921Z,1.20
2018-12-21T09:50:42.938Z,1.37
2018-12-21T09:55:36.291Z,1.53
2018-12-21T10:16:43.563Z,1.07
2018-12-21T10:21:36.920Z,1.40
2018-12-21T10:26:35.347Z,1.40
2018-12-21T10:31:36.427Z,1.80
2018-12-21T10:52:50.507Z,1.40
2018-12-21T10:57:50.971Z,1.10
2018-12-21T11:08:03.851Z,1.30
2018-12-21T11:13:02.541Z,1.90
2018-12-21T11:18:01.580Z,1.63
2018-12-21T11:22:59.992Z,1.40
2018-12-21T11:27:57.383Z,1.47
2018-12-21T11:49:05.401Z,1.20
2018-12-21T11:53:58.684Z,1.40
2018-12-21T11:58:51.998Z,1.57
2018-12-21T12:03:45.289Z,1.23
2018-12-21T12:08:38.641Z,1.73
2018-12-21T12:13:32.843Z,1.40
2018-12-21T12:18:26.190Z,1.40
2018-12-21T12:23:20.745Z,1.30
2018-12-21T12:28:14.055Z,1.50
2018-12-21T12:33:09.758Z,1.20
2018-12-21T12:54:20.731Z,1.53
2018-12-21T12:59:14.163Z,1.60
2018-12-21T13:04:07.504Z,1.63
2018-12-21T13:09:01.135Z,1.50
2018-12-21T13:30:09.164Z,1.60
2018-12-21T13:35:02.530Z,1.50
2018-12-21T13:39:55.806Z,1.90
2018-12-21T13:44:49.405Z,1.80
2018-12-21T13:49:42.705Z,1.90
2018-12-21T14:05:25.846Z,2.07
2018-12-21T14:10:19.241Z,2.13
2018-12-21T14:15:12.595Z,1.83
2018-12-21T14:20:09.139Z,2.33
2018-12-21T14:41:17.033Z,1.90
2018-12-21T14:46:10.383Z,2.10
2018-12-21T14:51:03.951Z,2.03
2018-12-21T14:55:57.244Z,2.13
2018-12-21T15:00:50.526Z,2.20
2018-12-21T15:05:43.831Z,1.73
2018-12-21T15:10:37.122Z,2.33
2018-12-21T15:15:30.519Z,1.90
2018-12-21T15:20:23.791Z,1.50
2018-12-21T15:41:31.329Z,1.87
2018-12-21T15:46:24.693Z,2.00
2018-12-21T15:51:18.148Z,2.30
2018-12-21T15:56:11.435Z,2.00
2018-12-21T16:01:04.737Z,2.00
2018-12-21T16:22:12.732Z,1.70
2018-12-21T16:27:05.987Z,1.77
2018-12-21T16:31:59.286Z,1.90
2018-12-21T16:36:52.584Z,1.80
2018-12-21T16:58:00.335Z,1.80
2018-12-21T17:02:53.702Z,1.50
2018-12-21T17:07:46.998Z,1.70
2018-12-21T17:12:40.304Z,1.80
2018-12-21T17:17:33.569Z,1.93
2018-12-21T17:38:40.829Z,2.00
2018-12-21T17:43:34.183Z,1.97
2018-12-21T17:48:27.450Z,2.00
2018-12-21T17:53:20.752Z,1.90
2018-12-21T18:14:28.781Z,1.90
2018-12-21T18:19:22.073Z,2.03
2018-12-21T18:24:15.648Z,2.00
2018-12-21T18:29:08.916Z,2.47
2018-12-21T18:34:04.730Z,2.30
2018-12-21T18:49:47.467Z,2.33
2018-12-21T18:54:40.734Z,2.23
2018-12-21T18:59:34.039Z,2.30
2018-12-21T19:04:27.348Z,2.60
2018-12-21T19:25:34.831Z,2.03
2018-12-21T19:30:28.249Z,2.27
2018-12-21T19:35:27.646Z,1.93
2018-12-21T19:40:16.867Z,1.90
2018-12-21T19:45:10.371Z,2.20
2018-12-21T19:50:06.476Z,2.00
2018-12-21T19:55:03.847Z,2.20
2018-12-21T19:59:57.120Z,2.13
2018-12-21T20:04:50.406Z,2.60
2018-12-21T20:25:58.492Z,2.60
2018-12-21T20:30:51.830Z,3.13
2018-12-21T20:35:45.166Z,3.67
2018-12-21T20:40:38.445Z,3.13
2018-12-21T20:45:31.884Z,3.10
2018-12-21T21:06:39.748Z,2.20
2018-12-21T21:11:33.027Z,2.70
2018-12-21T21:16:26.362Z,2.40
2018-12-21T21:21:19.650Z,2.27
2018-12-21T21:42:26.997Z,1.60
2018-12-21T21:47:20.291Z,1.77
2018-12-21T21:52:13.570Z,1.30
2018-12-21T21:57:06.929Z,1.20
2018-12-21T22:02:00.261Z,1.33
2018-12-21T22:23:08.037Z,1.70
2018-12-21T22:28:01.299Z,1.73
2018-12-21T22:32:54.617Z,2.20
2018-12-21T22:37:47.910Z,2.30
2018-12-21T22:58:55.826Z,2.10
2018-12-21T23:03:49.121Z,2.10
2018-12-21T23:08:42.416Z,1.53
2018-12-21T23:13:35.776Z,1.80
2018-12-21T23:18:29.074Z,1.30
2018-12-21T23:34:37.883Z,0.60
2018-12-21T23:39:31.249Z,1.00
2018-12-21T23:44:24.568Z,0.40
2018-12-21T23:49:17.883Z,0.40
2018-12-21T23:54:11.258Z,0.50
